< Typhoon 199507 1995 Season Typhoon 199509 >
Typhoon 199508 (KENT)
General InformationTrack Information on Google MapsDetailed Wind InformationList of All Images || Disaster Info.ResourceGoogle EarthGE AnimationAtom FeedGeoJSON
Detalied Best Track (Time Zone = UTC)
Year Month Day Hour Lat. Long. Pressure (hPa) Wind (kt) Class Image Chart
1995 8 24 12 10.2 134.0 1008 0 2 Image Chart
1995 8 24 18 10.9 132.5 1008 0 2 Image Chart
1995 8 25 00 11.5 131.5 1008 0 2 Image Chart
1995 8 25 06 12.5 130.5 1006 0 2 Image Chart
1995 8 25 12 13.5 130.0 1006 0 2 Image Chart
1995 8 25 18 14.3 129.3 1004 0 2 Image Chart
1995 8 26 00 14.8 128.6 1002 0 2 Image Chart
1995 8 26 06 15.5 128.0 1000 35 3 Image Chart
1995 8 26 12 16.0 127.3 996 40 3 Image Chart
1995 8 26 18 16.5 126.7 996 40 3 Image Chart
1995 8 27 00 16.9 126.7 994 40 3 Image Chart
1995 8 27 06 17.4 126.7 994 45 3 Image Chart
1995 8 27 12 17.2 127.1 992 45 3 Image Chart
1995 8 27 18 17.0 126.9 990 45 3 Image Chart
1995 8 28 00 17.3 126.5 985 50 4 Image Chart
1995 8 28 06 17.9 126.4 980 55 4 Image Chart
1995 8 28 12 18.1 125.9 980 55 4 Image Chart
1995 8 28 18 18.3 125.4 975 60 4 Image Chart
1995 8 29 00 18.4 125.0 970 65 5 Image Chart
1995 8 29 06 18.5 124.6 965 70 5 Image Chart
1995 8 29 12 19.0 124.1 955 80 5 Image Chart
1995 8 29 18 19.5 123.4 945 85 5 Image Chart
1995 8 30 00 20.1 122.3 945 85 5 Image Chart
1995 8 30 06 20.7 120.9 945 85 5 Image Chart
1995 8 30 12 21.0 119.7 945 85 5 Image Chart
1995 8 30 18 21.7 118.3 945 85 5 Image Chart
1995 8 31 00 22.3 116.8 950 80 5 Image Chart
1995 8 31 06 22.7 115.4 960 70 5 Image Chart
1995 8 31 12 23.3 113.5 985 50 4 Image Chart
1995 8 31 18 23.7 111.6 996 35 3 Image Chart
1995 9 1 00 24.2 109.7 998 0 2 Image Chart
Japan Meteorological Agency Best Track Data | Correction Date : 1996-01-19
< Typhoon 199507 1995 Season Typhoon 199509 >

Help